Share

Atka, AK

Adak (PADK) Elev 13 ft | 51.88 °N, 176.65 °W | Change Station

Current weather conditions updated 15 minutes ago

Mostly Cloudy
Mostly Cloudy
32 °F
Feels Like 28 °F
N
5
Wind Variable Wind from SW
Sunrise 7:35 AM
Sunset 9:39 PM
Moon Waning Gibbous

Today is forecast to be Cooler than yesterday. Late day rain and snow showers.

Pressure 29.48 in
Visibility 10.0 miles
Clouds Mostly Cloudy 12000 ft
Windchill 28 °F
Dew Point 27 °F
Humidity 80%
Rainfall 0.00 in
Snow Depth Not available.
UV 0 out of 16
Pollen Not available.
Air Quality Not available.
Flu Activity Sporadic
METAR PADK 171036Z AUTO 22004KT 10SM BKN120 00/M03 A2948 RMK AO1

More Conditions Fewer Conditions

Pressure 29.48 in
Visibility 10.0 miles
Clouds Mostly Cloudy 12000 ft
Windchill 28 °F
Dew Point 27 °F
Humidity 80%
Rainfall 0.00 in
Snow Depth Not available.
UV 0 out of 16
Pollen Not available.
Air Quality Not available.
Flu Activity Sporadic
METAR PADK 171036Z AUTO 22004KT 10SM BKN120 00/M03 A2948 RMK AO1

More Conditions Fewer Conditions

10-Day Forecast

Almanac

Astronomy

Apr. 17, 2014 Rise Set
Actual Time 7:35 AM HADT 9:39 PM HADT
Civil Twilight 6:59 AM HADT 10:16 PM HADT
Nautical Twilight 6:14 AM HADT 11:02 PM HADT
Astronomical Twilight 5:22 AM HADT 11:54 PM HADT
Moon No Moon Rise 9:04 AM HADT
Length of Visible Light 15h 16m
Length of Day
14h 03m
Tomorrow will be 3m 52s longer.
Waning Gibbous, 95% of the Moon is Illuminated
Today
Waning Gibbous
Apr 22
Last Quarter
Apr 29
New
May 6
First Quarter
May 14
Full

Today's Extremes

State Highs State Lows

Community

  • Sunset over the Bay
    Sunset over the Bay
  • symphony in blue....
    symphony in blue....
  • Dawn Surprise
    Dawn Surprise
  • Yucca delight
    Yucca delight
  • Sunset inside of the Ocean
    Sunset inside of the Ocean

WunderPhotos

Upload Photos

1,701,901 photos uploaded!

Nearby

Snow Depth

Station Depth Elevation
Rocky Point 7 in 500 ft
Pargon Creek 4 in 300 ft
Port Graham 10 in 300 ft
Mcneil Canyon 11 in 1320 ft
MF Bradley River 22 in 2300 ft

Coastal Water Temperatures

Place Temperature
No Stations Reporting

Earthquake Activity

City Distance Mag. Time & Date
No recent earthquake activity has been reported nearby.
Minimum magnitude displayed is 2.5.

Nearby Weather Stations

There are no personal weather stations in this area.

What do you think?

We're not finished. Please let us know what you like, what you don't like, and what you are still missing.